Time;durP1;ratioP1;P1;durP2;ratioP2;P2;SDS_P1;SDS_P2;PMS_P1;PMS_P2;Temp;Humidity;BMP_temperature;BMP_pressure;BME280_temperature;BME280_humidity;BME280_pressure;Samples;Min_cycle;Max_cycle;Signal;HPM_P1;HPM_P2
2021/01/25 00:01:42;;;;;;;14.95;10.30;;;;;;;5.85;88.08;98234.70;1742181;81;21130;-56
2021/01/25 00:04:10;;;;;;;10.88;8.03;;;;;;;5.91;87.87;98238.23;1755535;81;21537;-57
2021/01/25 00:06:37;;;;;;;35.15;11.40;;;;;;;5.90;87.77;98246.05;1708631;84;21188;-57
2021/01/25 00:09:05;;;;;;;14.85;10.30;;;;;;;5.80;88.05;98241.48;1742306;81;21162;-58
2021/01/25 00:11:32;;;;;;;19.25;10.28;;;;;;;5.83;88.06;98244.16;1741011;82;21158;-57
2021/01/25 00:14:00;;;;;;;24.95;11.43;;;;;;;5.86;87.90;98245.80;1741759;81;21277;-57
2021/01/25 00:16:28;;;;;;;26.42;10.90;;;;;;;5.83;88.00;98242.81;1744260;81;21174;-57
2021/01/25 00:18:57;;;;;;;16.25;10.65;;;;;;;5.77;88.21;98246.63;1742706;81;21134;-57
2021/01/25 00:21:27;;;;;;;31.77;11.70;;;;;;;5.87;87.84;98240.67;1740674;82;21146;-57
2021/01/25 00:23:54;;;;;;;21.90;11.40;;;;;;;5.85;87.84;98233.88;1741039;81;21667;-57
2021/01/25 00:26:21;;;;;;;19.62;12.18;;;;;;;5.76;88.16;98236.91;1739521;81;21158;-57
2021/01/25 00:28:49;;;;;;;16.73;10.53;;;;;;;5.79;88.09;98240.40;1740788;81;21284;-57
2021/01/25 00:31:16;;;;;;;31.10;10.55;;;;;;;5.87;87.82;98237.16;1740715;82;21636;-57
2021/01/25 00:33:43;;;;;;;14.53;9.78;;;;;;;5.77;88.13;98228.55;1742745;81;21155;-56
2021/01/25 00:36:11;;;;;;;16.62;10.23;;;;;;;5.75;88.27;98225.83;1741955;81;21714;-57
2021/01/25 00:38:38;;;;;;;30.08;9.88;;;;;;;5.83;87.92;98220.67;1720410;82;21735;-57
2021/01/25 00:41:06;;;;;;;42.20;10.63;;;;;;;5.82;87.85;98218.23;1748552;81;21562;-57
2021/01/25 00:43:33;;;;;;;17.70;9.80;;;;;;;5.74;88.04;98215.57;1741542;82;21585;-57
2021/01/25 00:46:01;;;;;;;16.12;9.88;;;;;;;5.76;88.05;98203.16;1741153;82;21520;-55
2021/01/25 00:48:28;;;;;;;18.42;8.83;;;;;;;5.84;87.72;98197.18;1748960;81;21288;-57
2021/01/25 00:50:56;;;;;;;15.78;8.58;;;;;;;5.79;87.86;98195.30;1703079;84;21182;-57
2021/01/25 00:53:23;;;;;;;15.05;9.50;;;;;;;5.71;88.11;98187.78;1703993;84;21190;-57
2021/01/25 00:55:52;;;;;;;12.05;8.28;;;;;;;5.76;88.05;98192.36;1700490;84;21202;-57
2021/01/25 00:58:19;;;;;;;23.77;10.30;;;;;;;5.77;87.92;98183.18;1748357;81;21667;-57
2021/01/25 01:00:47;;;;;;;15.90;9.53;;;;;;;5.70;88.19;98188.89;1756009;80;21186;-57
2021/01/25 01:03:15;;;;;;;14.45;8.25;;;;;;;5.72;88.12;98189.94;1711525;83;21218;-57
2021/01/25 01:05:42;;;;;;;17.67;8.40;;;;;;;5.77;87.88;98185.34;1686627;84;21140;-57
2021/01/25 01:08:09;;;;;;;13.10;8.83;;;;;;;5.71;88.09;98184.27;1698407;83;21670;-57
2021/01/25 01:10:36;;;;;;;16.75;9.63;;;;;;;5.68;88.22;98190.23;1703923;83;21196;-57
2021/01/25 01:13:04;;;;;;;10.38;7.22;;;;;;;5.76;87.99;98181.55;1700817;83;21212;-58
2021/01/25 01:15:31;;;;;;;18.48;9.55;;;;;;;5.76;87.88;98181.02;1712591;83;21149;-57
2021/01/25 01:17:59;;;;;;;14.68;9.28;;;;;;;5.69;88.19;98185.91;1726555;82;21204;-58
2021/01/25 01:20:27;;;;;;;17.65;8.53;;;;;;;5.71;88.21;98178.33;1718135;83;21609;-58
2021/01/25 01:22:54;;;;;;;27.37;9.60;;;;;;;5.77;87.92;98187.23;1680885;84;21327;-57
2021/01/25 01:25:21;;;;;;;13.62;10.43;;;;;;;5.70;88.15;98179.97;1716766;82;21236;-57
2021/01/25 01:27:49;;;;;;;19.98;10.63;;;;;;;5.66;88.32;98180.27;1703793;83;21352;-57
2021/01/25 01:30:17;;;;;;;30.45;11.15;;;;;;;5.75;88.01;98178.05;1689812;85;21210;-57
2021/01/25 01:32:44;;;;;;;17.05;8.00;;;;;;;5.74;87.97;98181.04;1733410;82;21660;-57
2021/01/25 01:35:12;;;;;;;16.32;9.38;;;;;;;5.65;88.28;98182.69;1707823;83;21185;-57
2021/01/25 01:37:39;;;;;;;18.57;10.32;;;;;;;5.67;88.20;98178.61;1709450;83;21589;-57
2021/01/25 01:40:11;;;;;;;25.25;10.53;;;;;;;5.72;88.03;98189.41;1703710;83;21213;-57
2021/01/25 01:42:38;;;;;;;19.07;10.78;;;;;;;5.65;88.33;98185.38;1718604;83;21185;-57
2021/01/25 01:45:07;;;;;;;18.27;9.93;;;;;;;5.67;88.30;98175.91;1716533;83;21221;-57
2021/01/25 01:47:35;;;;;;;25.68;10.85;;;;;;;5.75;87.95;98178.05;1719175;82;21162;-57
2021/01/25 01:50:05;;;;;;;17.30;9.68;;;;;;;5.68;88.16;98176.19;1719131;82;21696;-58
2021/01/25 01:52:33;;;;;;;12.10;8.60;;;;;;;5.62;88.40;98174.61;1711392;82;21546;-57
2021/01/25 01:55:01;;;;;;;15.48;9.48;;;;;;;5.69;88.19;98172.95;1692300;83;21175;-57
2021/01/25 01:57:34;;;;;;;27.27;10.50;;;;;;;5.69;88.12;98179.70;1713378;83;21719;-57
2021/01/25 02:00:05;;;;;;;16.90;11.03;;;;;;;5.60;88.30;98180.81;1717862;83;21314;-57
2021/01/25 02:02:35;;;;;;;17.60;9.45;;;;;;;5.64;88.27;98178.36;1715049;82;21162;-57
2021/01/25 02:05:03;;;;;;;35.38;11.60;;;;;;;5.66;88.12;98180.27;1714417;82;21162;-58
2021/01/25 02:07:30;;;;;;;25.45;11.90;;;;;;;5.59;88.27;98180.56;1756716;80;21138;-57
2021/01/25 02:09:58;;;;;;;20.57;11.68;;;;;;;5.60;88.32;98186.77;1748720;82;21712;-58
2021/01/25 02:12:26;;;;;;;32.10;11.40;;;;;;;5.66;88.07;98178.38;1686766;83;21792;-58
2021/01/25 02:14:53;;;;;;;30.43;12.20;;;;;;;5.63;88.09;98183.52;1690970;83;21732;-58
2021/01/25 02:17:20;;;;;;;16.12;10.18;;;;;;;5.55;88.41;98183.55;1700305;84;21130;-58
2021/01/25 02:20:23;;;;;;;15.55;9.50;;;;;;;5.63;88.26;98180.81;1702969;83;21667;-58
2021/01/25 02:23:38;;;;;;;58.10;10.68;;;;;;;5.67;88.08;98187.28;1748800;80;21134;-58
2021/01/25 02:26:51;;;;;;;16.35;10.03;;;;;;;5.55;88.43;98184.89;1749266;80;21163;-58
2021/01/25 02:29:18;;;;;;;25.48;11.00;;;;;;;5.59;88.30;98186.50;1751145;80;21218;-57
2021/01/25 02:31:45;;;;;;;22.98;10.05;;;;;;;5.55;88.44;98185.44;1749700;80;21158;-57
2021/01/25 02:34:13;;;;;;;21.65;10.15;;;;;;;5.48;88.72;98187.90;1748435;80;21126;-57
2021/01/25 02:36:40;;;;;;;18.70;9.53;;;;;;;5.50;88.68;98188.41;1749417;80;21129;-56
2021/01/25 02:39:07;;;;;;;23.38;7.80;;;;;;;5.57;88.53;98181.91;1768952;80;21290;-56
2021/01/25 02:41:35;;;;;;;19.57;7.78;;;;;;;5.50;88.74;98188.41;1748691;82;21189;-56
2021/01/25 02:44:02;;;;;;;13.80;7.62;;;;;;;5.47;88.81;98184.92;1770532;80;21203;-56
2021/01/25 02:46:30;;;;;;;25.60;9.35;;;;;;;5.59;88.41;98189.20;1777869;80;21157;-56
2021/01/25 02:48:57;;;;;;;11.40;7.03;;;;;;;5.56;88.44;98189.76;1656497;85;21708;-56
2021/01/25 02:51:25;;;;;;;12.33;8.25;;;;;;;5.45;88.95;98194.39;1749034;80;21310;-56
2021/01/25 02:53:52;;;;;;;13.62;8.65;;;;;;;5.53;88.64;98204.05;1686647;84;21142;-56
2021/01/25 02:56:20;;;;;;;21.40;8.98;;;;;;;5.51;88.63;98199.48;1758075;80;21711;-56
2021/01/25 02:58:47;;;;;;;12.63;8.13;;;;;;;5.44;88.89;98206.26;1700779;84;21194;-56
2021/01/25 03:01:14;;;;;;;14.33;9.58;;;;;;;5.46;88.80;98202.73;1751497;80;21161;-56
2021/01/25 03:03:42;;;;;;;14.23;9.05;;;;;;;5.53;88.52;98212.69;1754169;82;21581;-56
2021/01/25 03:06:11;;;;;;;15.35;9.95;;;;;;;5.49;88.51;98213.78;1754299;82;21176;-56
2021/01/25 03:08:38;;;;;;;13.28;9.45;;;;;;;5.42;88.73;98211.92;1756611;80;21199;-56
2021/01/25 03:11:05;;;;;;;12.58;8.93;;;;;;;5.45;88.68;98205.19;1700055;83;21182;-56
2021/01/25 03:13:32;;;;;;;15.15;10.20;;;;;;;5.46;88.60;98204.08;1704694;83;21199;-56
2021/01/25 03:15:59;;;;;;;13.50;9.28;;;;;;;5.39;88.80;98203.03;1725392;82;21154;-56
2021/01/25 03:18:28;;;;;;;14.55;10.00;;;;;;;5.43;88.68;98199.23;1686484;84;21157;-56
2021/01/25 03:20:55;;;;;;;14.95;9.90;;;;;;;5.48;88.44;98191.95;1720617;82;21593;-56
2021/01/25 03:23:23;;;;;;;15.25;10.48;;;;;;;5.40;88.73;98192.51;1720543;82;21208;-56
2021/01/25 03:25:50;;;;;;;11.90;9.20;;;;;;;5.35;88.88;98193.08;1703250;83;21331;-55
2021/01/25 03:28:18;;;;;;;12.10;8.18;;;;;;;5.41;88.72;98187.39;1730397;82;21331;-56
2021/01/25 03:30:45;;;;;;;15.83;9.95;;;;;;;5.41;88.63;98181.17;1684712;84;21225;-57
2021/01/25 03:33:13;;;;;;;14.00;9.73;;;;;;;5.34;88.91;98180.66;1689294;83;21323;-56
2021/01/25 03:35:40;;;;;;;11.57;8.48;;;;;;;5.38;88.84;98171.75;1714943;83;21233;-56
2021/01/25 03:38:07;;;;;;;13.95;9.65;;;;;;;5.40;88.67;98172.27;1720659;82;21186;-56
2021/01/25 03:40:35;;;;;;;12.03;8.98;;;;;;;5.38;88.74;98172.28;1719311;82;21178;-55
2021/01/25 03:43:02;;;;;;;11.93;9.30;;;;;;;5.37;88.95;98163.38;1701577;83;21185;-56
2021/01/25 03:45:29;;;;;;;12.43;9.48;;;;;;;5.47;88.56;98161.98;1692575;83;21165;-56
2021/01/25 03:47:57;;;;;;;12.15;9.10;;;;;;;5.44;88.55;98161.19;1690404;83;21708;-55
2021/01/25 03:50:24;;;;;;;12.53;9.65;;;;;;;5.40;88.79;98164.17;1702706;84;21185;-56
2021/01/25 03:52:51;;;;;;;11.73;8.78;;;;;;;5.49;88.45;98161.72;1719562;82;21605;-56
2021/01/25 03:55:19;;;;;;;13.00;9.88;;;;;;;5.51;88.27;98155.48;1718341;83;21565;-56
2021/01/25 03:57:46;;;;;;;12.58;9.03;;;;;;;5.44;88.56;98152.28;1711591;83;21145;-56
2021/01/25 04:00:15;;;;;;;12.55;8.10;;;;;;;5.46;88.48;98160.36;1711438;83;21143;-56
2021/01/25 04:02:42;;;;;;;12.63;9.08;;;;;;;5.50;88.24;98161.42;1716025;83;21580;-56
2021/01/25 04:05:10;;;;;;;13.05;8.98;;;;;;;5.46;88.48;98163.06;1738490;82;21149;-56
2021/01/25 04:07:38;;;;;;;10.82;7.97;;;;;;;5.43;88.66;98164.16;1686798;84;21157;-56
2021/01/25 04:10:07;;;;;;;12.47;9.23;;;;;;;5.55;88.27;98165.19;1678550;83;21593;-56
2021/01/25 04:12:36;;;;;;;11.33;8.80;;;;;;;5.51;88.30;98162.23;1700182;84;21578;-55
2021/01/25 04:15:05;;;;;;;11.53;8.88;;;;;;;5.45;88.46;98158.77;1719683;83;21193;-56
2021/01/25 04:17:33;;;;;;;10.65;7.97;;;;;;;5.49;88.32;98159.80;1688164;83;21600;-56
2021/01/25 04:20:00;;;;;;;10.13;7.45;;;;;;;5.56;87.98;98157.37;1713933;83;21134;-56
2021/01/25 04:22:27;;;;;;;12.25;8.78;;;;;;;5.47;88.07;98157.13;1720504;83;21149;-56
2021/01/25 04:24:55;;;;;;;10.82;8.30;;;;;;;5.43;88.27;98158.75;1722619;83;21553;-56
2021/01/25 04:27:23;;;;;;;11.53;8.10;;;;;;;5.49;87.92;98154.97;1673748;83;21174;-56
2021/01/25 04:29:51;;;;;;;11.95;8.85;;;;;;;5.48;87.91;98169.55;1692534;83;21129;-56
2021/01/25 04:32:18;;;;;;;11.45;7.92;;;;;;;5.38;88.16;98172.28;1714346;83;21173;-56
2021/01/25 04:34:46;;;;;;;8.90;7.25;;;;;;;5.40;88.15;98167.41;1711097;83;21247;-56
2021/01/25 04:37:13;;;;;;;10.60;7.90;;;;;;;5.44;87.77;98158.49;1713335;83;21314;-56
2021/01/25 04:39:42;;;;;;;10.88;7.72;;;;;;;5.35;87.98;98156.09;1707195;83;21155;-56
2021/01/25 04:42:10;;;;;;;11.03;7.20;;;;;;;5.33;88.09;98156.10;1707890;83;21308;-56
2021/01/25 04:44:40;;;;;;;10.30;8.23;;;;;;;5.40;87.71;98157.97;1706444;83;21177;-56
2021/01/25 04:47:07;;;;;;;11.18;8.38;;;;;;;5.39;87.55;98146.89;1718451;83;21189;-56
2021/01/25 04:49:35;;;;;;;10.20;7.70;;;;;;;5.33;87.77;98151.52;1711455;83;21210;-56
2021/01/25 04:52:02;;;;;;;8.88;6.47;;;;;;;5.34;87.54;98150.45;1719852;83;21295;-56
2021/01/25 04:54:29;;;;;;;9.10;6.80;;;;;;;5.37;87.14;98149.89;1723825;83;21211;-57
2021/01/25 04:56:57;;;;;;;10.72;7.55;;;;;;;5.33;87.18;98151.52;1719599;83;21621;-56
2021/01/25 04:59:24;;;;;;;9.05;6.75;;;;;;;5.32;87.22;98152.59;1716311;83;21797;-56
2021/01/25 05:01:53;;;;;;;10.03;7.17;;;;;;;5.41;86.73;98137.46;1713639;83;21224;-56
2021/01/25 05:04:20;;;;;;;8.80;7.25;;;;;;;5.38;86.41;98139.91;1710728;83;21121;-56
2021/01/25 05:06:47;;;;;;;9.45;7.08;;;;;;;5.29;86.50;98135.61;1734584;81;21153;-56
2021/01/25 05:09:14;;;;;;;9.00;6.55;;;;;;;5.31;86.38;98142.09;1742352;82;21206;-55
2021/01/25 05:11:42;;;;;;;9.03;6.42;;;;;;;5.33;86.05;98139.38;1721040;81;21150;-56
2021/01/25 05:14:09;;;;;;;9.03;7.03;;;;;;;5.28;86.16;98135.34;1751291;82;21122;-56
2021/01/25 05:16:37;;;;;;;8.30;6.90;;;;;;;5.23;86.25;98135.38;1748368;82;21594;-56
2021/01/25 05:19:05;;;;;;;8.38;6.92;;;;;;;5.26;85.90;98146.95;1747002;82;21351;-58
2021/01/25 05:21:42;;;;;;;10.30;7.40;;;;;;;5.27;85.85;98143.73;1747351;82;21213;-56
2021/01/25 05:24:11;;;;;;;9.43;7.37;;;;;;;5.20;86.11;98147.26;1746343;82;21171;-56
2021/01/25 05:26:57;;;;;;;11.70;7.83;;;;;;;5.23;86.01;98154.27;1746462;81;21154;-56
2021/01/25 05:29:28;;;;;;;10.55;8.00;;;;;;;5.25;85.92;98161.52;1749107;82;21199;-56
2021/01/25 05:31:56;;;;;;;9.63;7.72;;;;;;;5.17;86.18;98162.11;1751332;82;21193;-56
2021/01/25 05:34:23;;;;;;;9.43;7.15;;;;;;;5.17;86.31;98166.70;1747696;82;21129;-56
2021/01/25 05:36:51;;;;;;;9.80;7.20;;;;;;;5.25;86.02;98166.11;1749781;82;21299;-55
2021/01/25 05:39:19;;;;;;;11.25;7.83;;;;;;;5.18;86.33;98167.75;1743892;81;21649;-56
2021/01/25 05:41:56;;;;;;;8.40;6.78;;;;;;;5.14;86.69;98153.73;1738012;81;21747;-56
2021/01/25 05:44:24;;;;;;;9.08;7.53;;;;;;;5.24;86.38;98165.86;1747222;82;21161;-56
2021/01/25 05:47:08;;;;;;;10.78;8.10;;;;;;;5.22;86.42;98171.52;1749740;81;21166;-56
2021/01/25 05:49:37;;;;;;;13.20;8.55;;;;;;;5.15;86.64;98172.35;1749792;82;21304;-57
2021/01/25 05:52:05;;;;;;;10.65;7.72;;;;;;;5.22;86.59;98185.01;1744618;82;21146;-57
2021/01/25 05:54:33;;;;;;;11.35;8.63;;;;;;;5.25;86.41;98191.20;1739768;82;21162;-56
2021/01/25 05:57:01;;;;;;;10.03;8.15;;;;;;;5.20;86.63;98178.28;1731809;82;21178;-56
2021/01/25 05:59:28;;;;;;;10.30;8.25;;;;;;;5.21;86.66;98168.55;1743039;82;21133;-56
2021/01/25 06:01:56;;;;;;;11.15;8.28;;;;;;;5.28;86.37;98164.23;1746566;81;21146;-56
2021/01/25 06:04:24;;;;;;;13.10;9.45;;;;;;;5.25;86.38;98153.43;1743790;81;21189;-57
2021/01/25 06:07:08;;;;;;;13.20;8.80;;;;;;;5.19;86.48;98149.68;1748869;81;21581;-56
2021/01/25 06:09:55;;;;;;;9.60;7.58;;;;;;;5.27;86.11;98153.17;1740965;82;21207;-56
2021/01/25 06:12:28;;;;;;;10.40;7.62;;;;;;;5.26;85.86;98150.20;1696053;84;21138;-55
2021/01/25 06:15:03;;;;;;;9.43;6.97;;;;;;;5.15;86.10;98142.68;1753574;81;21158;-55
2021/01/25 06:17:34;;;;;;;11.15;7.58;;;;;;;5.20;85.91;98139.16;1746614;81;21594;-56
2021/01/25 06:20:04;;;;;;;10.35;7.97;;;;;;;5.25;85.62;98144.52;1750364;81;21161;-56
2021/01/25 06:22:34;;;;;;;9.53;7.50;;;;;;;5.18;85.82;98139.42;1743264;81;21838;-55
2021/01/25 06:25:02;;;;;;;9.63;7.37;;;;;;;5.21;85.75;98141.57;1747566;81;21154;-55
2021/01/25 06:27:30;;;;;;;8.63;6.92;;;;;;;5.24;85.45;98131.60;1744388;81;21182;-56
2021/01/25 06:30:00;;;;;;;8.33;6.50;;;;;;;5.20;85.61;98137.28;1741690;81;21156;-55
2021/01/25 06:32:34;;;;;;;7.95;6.35;;;;;;;5.25;85.38;98137.78;1760465;81;21137;-57
2021/01/25 06:35:05;;;;;;;8.63;6.58;;;;;;;5.31;84.96;98136.70;1679294;84;21154;-55
2021/01/25 06:37:37;;;;;;;10.78;7.20;;;;;;;5.24;85.02;98130.80;1680187;84;21154;-56
2021/01/25 06:40:08;;;;;;;7.28;5.83;;;;;;;5.22;85.16;98144.55;1698143;84;21578;-57
2021/01/25 06:42:38;;;;;;;8.18;6.47;;;;;;;5.33;84.79;98134.52;1742563;81;21839;-55
2021/01/25 06:45:10;;;;;;;8.48;6.55;;;;;;;5.28;84.51;98135.34;1742543;82;21134;-56
2021/01/25 06:47:38;;;;;;;9.45;6.37;;;;;;;5.26;84.71;98133.47;1743232;81;21661;-56
2021/01/25 06:50:07;;;;;;;8.85;6.60;;;;;;;5.23;84.79;98129.17;1740887;81;21223;-56
2021/01/25 06:52:36;;;;;;;9.00;6.83;;;;;;;5.27;84.53;98112.70;1747496;81;21293;-56
2021/01/25 06:55:07;;;;;;;8.60;6.67;;;;;;;5.22;84.69;98127.55;1771387;81;21570;-56
2021/01/25 06:57:36;;;;;;;9.03;6.83;;;;;;;5.23;84.70;98142.13;1753725;81;21680;-56
2021/01/25 07:00:18;;;;;;;9.73;6.72;;;;;;;5.23;84.44;98148.05;1742937;82;21172;-56
2021/01/25 07:02:59;;;;;;;10.82;6.83;;;;;;;5.11;84.81;98148.36;1752771;81;21717;-57
2021/01/25 07:05:32;;;;;;;10.08;7.55;;;;;;;5.16;84.80;98140.26;1719035;81;21145;-56
2021/01/25 07:08:20;;;;;;;9.70;7.30;;;;;;;5.14;84.79;98149.15;1750239;81;21529;-56
2021/01/25 07:10:59;;;;;;;9.48;7.20;;;;;;;5.07;85.06;98145.94;1740728;82;21577;-56
2021/01/25 07:13:31;;;;;;;9.55;7.30;;;;;;;5.14;84.78;98141.05;1741726;82;21284;-57
2021/01/25 07:15:59;;;;;;;10.80;7.95;;;;;;;5.05;84.96;98131.12;1740851;82;21138;-56
2021/01/25 07:18:30;;;;;;;12.33;7.67;;;;;;;5.03;85.10;98130.84;1741157;81;21206;-56
2021/01/25 07:20:58;;;;;;;11.63;7.37;;;;;;;5.12;84.71;98130.28;1746430;81;21150;-56
2021/01/25 07:23:27;;;;;;;11.53;8.03;;;;;;;5.09;84.55;98138.93;1746792;81;21353;-56
2021/01/25 07:25:58;;;;;;;9.25;6.92;;;;;;;5.05;84.88;98152.69;1747147;81;21143;-56
2021/01/25 07:28:28;;;;;;;10.95;7.00;;;;;;;5.07;84.95;98137.03;1743519;81;21131;-56
2021/01/25 07:30:58;;;;;;;9.05;7.53;;;;;;;5.09;84.79;98141.09;1693785;84;21170;-55
2021/01/25 07:33:26;;;;;;;9.88;7.97;;;;;;;5.04;84.95;98139.74;1748398;81;21218;-56
2021/01/25 07:35:54;;;;;;;9.95;7.05;;;;;;;5.07;84.80;98138.38;1764016;81;21185;-57
2021/01/25 07:38:22;;;;;;;10.10;7.62;;;;;;;5.08;84.46;98128.67;1746339;81;21170;-55
2021/01/25 07:40:50;;;;;;;9.60;7.00;;;;;;;5.03;84.75;98140.81;1746464;81;21142;-56
2021/01/25 07:43:18;;;;;;;9.80;6.80;;;;;;;5.06;84.78;98138.95;1768260;81;21178;-56
2021/01/25 07:45:51;;;;;;;9.90;7.55;;;;;;;5.03;84.55;98128.14;1740857;82;21138;-56
2021/01/25 07:48:18;;;;;;;9.33;6.53;;;;;;;4.98;84.68;98117.92;1722823;81;21667;-57
2021/01/25 07:50:54;;;;;;;9.30;6.95;;;;;;;5.01;84.76;98121.42;1743080;82;21190;-58
2021/01/25 07:53:22;;;;;;;9.63;7.20;;;;;;;5.05;84.47;98128.42;1743229;81;21142;-56
2021/01/25 07:55:49;;;;;;;9.45;7.37;;;;;;;4.98;84.71;98114.70;1746925;81;21165;-56
2021/01/25 07:58:16;;;;;;;9.38;7.60;;;;;;;5.01;84.69;98106.05;1743592;81;21504;-56
2021/01/25 08:00:44;;;;;;;9.05;7.28;;;;;;;5.11;84.49;98097.11;1740083;82;21130;-56
2021/01/25 08:03:22;;;;;;;12.98;8.95;;;;;;;5.08;84.58;98086.88;1745058;82;21218;-56
2021/01/25 08:05:51;;;;;;;10.32;8.00;;;;;;;5.07;84.76;98094.69;1748001;82;21593;-56
2021/01/25 08:08:19;;;;;;;10.00;7.15;;;;;;;5.16;84.29;98094.40;1748189;80;21211;-56
2021/01/25 08:10:49;;;;;;;10.35;7.53;;;;;;;5.15;84.38;98094.66;1762116;80;21624;-56
2021/01/25 08:13:16;;;;;;;10.35;7.72;;;;;;;5.07;84.63;98094.69;1686088;84;21915;-57
2021/01/25 08:17:25;;;;;;;11.35;8.05;;;;;;;5.21;84.13;98105.16;1753156;79;22757;-56
2021/01/25 08:20:02;;;;;;;12.47;8.60;;;;;;;5.04;84.47;98099.29;1694331;83;21161;-56
2021/01/25 08:22:58;;;;;;;10.50;8.30;;;;;;;5.04;84.47;98099.29;1651018;87;21169;-55
2021/01/25 08:25:27;;;;;;;11.65;8.95;;;;;;;5.14;84.35;98093.04;1630651;86;21210;-56
2021/01/25 08:28:05;;;;;;;11.50;8.38;;;;;;;5.19;84.30;98099.77;1654085;85;21630;-56
2021/01/25 08:30:43;;;;;;;16.95;13.05;;;;;;;5.14;84.45;98097.08;1678115;85;21201;-55
2021/01/25 08:33:12;;;;;;;12.25;9.18;;;;;;;5.29;84.13;98095.14;1678021;85;21240;-55
2021/01/25 08:35:54;;;;;;;12.25;9.58;;;;;;;5.33;83.71;98081.91;1677953;85;21189;-55
2021/01/25 08:38:33;;;;;;;14.13;9.98;;;;;;;5.27;83.80;98078.97;1688730;85;21481;-56
2021/01/25 08:41:02;;;;;;;13.03;9.98;;;;;;;5.31;83.74;98081.38;1682861;84;21177;-57
2021/01/25 08:43:32;;;;;;;14.45;11.33;;;;;;;5.34;83.39;98089.73;1660864;85;21339;-57
2021/01/25 08:46:14;;;;;;;14.85;9.78;;;;;;;5.29;83.58;98074.09;1670883;85;21338;-57
2021/01/25 08:48:42;;;;;;;13.60;9.15;;;;;;;5.32;83.40;98079.74;1683265;84;21204;-55
2021/01/25 08:51:17;;;;;;;17.40;13.22;;;;;;;5.37;83.00;98073.52;1667281;85;21330;-56
2021/01/25 08:53:45;;;;;;;14.90;10.05;;;;;;;5.27;83.41;98070.34;1654243;87;22046;-56
2021/01/25 08:56:19;;;;;;;15.28;11.00;;;;;;;5.29;83.54;98076.80;1657474;85;21579;-55
2021/01/25 08:58:46;;;;;;;16.10;11.57;;;;;;;5.36;83.20;98078.64;1636702;87;21184;-55
2021/01/25 09:01:21;;;;;;;15.25;12.00;;;;;;;5.36;83.19;98082.16;1663743;85;21192;-55
2021/01/25 09:03:49;;;;;;;16.93;12.58;;;;;;;5.27;83.41;98068.99;1672191;84;21177;-56
2021/01/25 09:06:16;;;;;;;12.70;9.93;;;;;;;5.36;83.28;98061.91;1678709;85;21192;-55
2021/01/25 09:08:44;;;;;;;18.05;13.68;;;;;;;5.35;83.30;98059.52;1719725;82;21145;-55
2021/01/25 09:11:12;;;;;;;19.17;13.32;;;;;;;5.32;83.51;98044.66;1691256;85;21740;-56
2021/01/25 09:13:40;;;;;;;25.45;18.45;;;;;;;5.38;83.50;98046.27;1691866;83;21588;-55
2021/01/25 09:16:07;;;;;;;18.92;14.07;;;;;;;5.45;83.15;98030.58;1702773;83;21198;-55
2021/01/25 09:18:35;;;;;;;15.83;11.90;;;;;;;5.43;83.42;98025.17;1723249;82;21177;-55
2021/01/25 09:21:02;;;;;;;17.75;13.08;;;;;;;5.39;83.73;98029.52;1718290;83;21113;-55
2021/01/25 09:23:30;;;;;;;15.70;11.57;;;;;;;5.50;83.47;98035.92;1694373;85;21202;-55
2021/01/25 09:25:57;;;;;;;17.10;13.62;;;;;;;5.45;83.59;98024.38;1704071;83;21164;-55
2021/01/25 09:28:24;;;;;;;18.80;14.03;;;;;;;5.43;83.83;98022.48;1722630;82;21624;-55
2021/01/25 09:30:52;;;;;;;16.80;13.40;;;;;;;5.47;83.80;98005.98;1720683;83;21225;-56
2021/01/25 09:33:19;;;;;;;17.95;13.50;;;;;;;5.57;83.53;98004.56;1704175;83;21719;-55
2021/01/25 09:35:47;;;;;;;17.10;12.93;;;;;;;5.53;83.75;98018.92;1701457;83;21779;-55
2021/01/25 09:38:14;;;;;;;17.98;14.15;;;;;;;5.50;83.85;98017.56;1694259;83;21196;-55
2021/01/25 09:40:42;;;;;;;19.57;14.40;;;;;;;5.58;83.65;98018.33;1688398;83;21180;-55
2021/01/25 09:43:09;;;;;;;20.23;14.38;;;;;;;5.50;83.88;98018.38;1720207;83;21206;-55
2021/01/25 09:45:36;;;;;;;23.52;19.05;;;;;;;5.52;84.01;98014.06;1695661;83;21144;-56
2021/01/25 09:48:05;;;;;;;19.50;14.03;;;;;;;5.63;83.64;98005.35;1700046;83;21180;-57
2021/01/25 09:50:33;;;;;;;24.60;17.25;;;;;;;5.56;83.85;97998.92;1705584;83;21613;-55
2021/01/25 09:53:01;;;;;;;29.18;21.35;;;;;;;5.53;84.10;97986.77;1713197;82;21176;-55
2021/01/25 09:55:28;;;;;;;27.52;20.35;;;;;;;5.68;83.70;97993.14;1694556;83;21243;-55
2021/01/25 09:57:56;;;;;;;28.40;20.62;;;;;;;5.63;83.56;97983.75;1693722;85;21230;-56
2021/01/25 10:00:25;;;;;;;44.42;30.80;;;;;;;5.58;83.77;97981.89;1720464;83;21156;-56
2021/01/25 10:02:53;;;;;;;19.62;14.75;;;;;;;5.64;83.57;97973.20;1695098;83;21337;-56
2021/01/25 10:05:21;;;;;;;27.42;19.05;;;;;;;5.69;83.21;97972.63;1721763;83;21137;-55
2021/01/25 10:07:49;;;;;;;20.45;14.20;;;;;;;5.63;83.35;97967.02;1722571;82;21834;-55
2021/01/25 10:10:16;;;;;;;21.12;13.58;;;;;;;5.69;83.17;97962.38;1722884;83;21167;-56
2021/01/25 10:12:44;;;;;;;44.33;32.35;;;;;;;5.71;82.98;97966.39;1700339;83;21188;-56
2021/01/25 10:15:14;;;;;;;20.37;14.60;;;;;;;5.66;83.16;97951.60;1699945;83;21189;-55
2021/01/25 10:17:42;;;;;;;20.08;13.98;;;;;;;5.67;83.13;97941.05;1722010;82;21189;-56
2021/01/25 10:20:11;;;;;;;22.42;15.60;;;;;;;5.75;82.85;97932.34;1722822;83;21299;-56
2021/01/25 10:22:39;;;;;;;19.67;13.70;;;;;;;5.73;83.00;97929.13;1699172;82;21165;-55
2021/01/25 10:25:09;;;;;;;18.90;13.30;;;;;;;5.68;83.08;97921.06;1694514;83;21214;-55
2021/01/25 10:27:38;;;;;;;17.82;12.03;;;;;;;5.76;82.51;97919.11;1695373;83;21311;-56
2021/01/25 10:30:09;;;;;;;19.27;11.97;;;;;;;5.68;82.64;97914.32;1718099;83;21400;-56
2021/01/25 10:32:36;;;;;;;18.45;12.15;;;;;;;5.61;82.92;97904.94;1693995;85;21200;-55
2021/01/25 10:35:08;;;;;;;17.40;11.97;;;;;;;5.74;82.61;97906.99;1716096;83;21134;-56
2021/01/25 10:37:37;;;;;;;23.25;13.32;;;;;;;5.73;82.72;97898.08;1711413;83;21168;-56
2021/01/25 10:40:06;;;;;;;15.75;10.00;;;;;;;5.68;83.00;97903.52;1694567;83;21177;-56
2021/01/25 10:42:33;;;;;;;15.43;10.30;;;;;;;5.73;82.93;97891.88;1704477;82;21632;-56
2021/01/25 10:45:00;;;;;;;17.12;11.50;;;;;;;5.68;83.12;97899.47;1718339;83;21157;-56
2021/01/25 10:47:28;;;;;;;15.35;10.43;;;;;;;5.65;83.36;97891.13;1696379;82;21126;-56
2021/01/25 10:49:56;;;;;;;16.45;10.58;;;;;;;5.68;83.42;97887.32;1722800;83;21177;-56
2021/01/25 10:52:24;;;;;;;17.23;12.05;;;;;;;5.71;83.29;97878.65;1711867;82;21205;-55
2021/01/25 10:54:51;;;;;;;14.20;10.03;;;;;;;5.68;83.59;97878.41;1722377;83;21149;-55
2021/01/25 10:57:19;;;;;;;14.68;9.45;;;;;;;5.73;83.54;97879.19;1722316;83;21663;-56
2021/01/25 10:59:48;;;;;;;14.45;9.78;;;;;;;5.82;83.27;97869.36;1720499;82;21165;-56
2021/01/25 11:02:17;;;;;;;27.48;20.37;;;;;;;5.78;83.45;97854.01;1705147;83;21176;-55
2021/01/25 11:04:45;;;;;;;20.92;15.18;;;;;;;5.71;83.80;97849.49;1693938;85;21204;-55
2021/01/25 11:07:13;;;;;;;13.05;9.08;;;;;;;5.82;83.52;97838.30;1712238;83;21302;-55
2021/01/25 11:09:40;;;;;;;26.37;18.85;;;;;;;5.83;83.49;97843.98;1709310;82;21620;-55
2021/01/25 11:12:08;;;;;;;16.73;11.85;;;;;;;5.77;83.77;97836.22;1693714;85;21240;-56
2021/01/25 11:14:35;;;;;;;24.75;18.32;;;;;;;5.82;83.79;97822.11;1669028;83;21678;-55
2021/01/25 11:17:02;;;;;;;14.63;9.50;;;;;;;5.91;83.50;97817.73;1678234;83;21154;-55
2021/01/25 11:19:30;;;;;;;20.43;13.53;;;;;;;5.88;83.71;97825.60;1718989;83;21227;-55
2021/01/25 11:21:58;;;;;;;48.85;32.78;;;;;;;5.88;83.78;97820.20;1719074;83;21236;-55
2021/01/25 11:24:25;;;;;;;24.12;14.73;;;;;;;5.99;83.39;97821.13;1718881;83;21209;-56
2021/01/25 11:26:53;;;;;;;15.68;10.20;;;;;;;5.97;83.44;97817.92;1708665;83;21169;-57
2021/01/25 11:29:21;;;;;;;23.00;15.15;;;;;;;5.87;83.88;97802.38;1718540;83;21153;-55
2021/01/25 11:31:48;;;;;;;24.95;16.25;;;;;;;5.97;83.70;97803.61;1718530;83;21209;-56
2021/01/25 11:34:17;;;;;;;20.23;12.37;;;;;;;5.96;83.80;97800.64;1719055;83;21186;-56
2021/01/25 11:36:44;;;;;;;22.70;15.68;;;;;;;5.93;83.98;97806.08;1714856;83;21307;-55
2021/01/25 11:39:12;;;;;;;38.33;24.92;;;;;;;5.97;84.03;97798.20;1719007;82;21210;-56
2021/01/25 11:41:39;;;;;;;16.97;10.72;;;;;;;6.03;83.79;97792.19;1717127;83;21651;-55
2021/01/25 11:44:06;;;;;;;18.73;12.50;;;;;;;5.96;84.03;97785.25;1709899;82;21295;-56